createdAt,value
2018-06-27T00:01:20.237Z,16.12
2018-06-27T00:03:48.822Z,16.10
2018-06-27T00:06:17.506Z,16.08
2018-06-27T00:08:46.119Z,16.05
2018-06-27T00:11:14.770Z,16.02
2018-06-27T00:13:43.395Z,15.99
2018-06-27T00:16:12.034Z,15.99
2018-06-27T00:18:40.712Z,15.94
2018-06-27T00:21:09.681Z,15.90
2018-06-27T00:23:38.365Z,15.90
2018-06-27T00:26:07.125Z,15.88
2018-06-27T00:28:35.750Z,15.79
2018-06-27T00:31:04.378Z,15.78
2018-06-27T00:33:33.077Z,15.75
2018-06-27T00:36:01.815Z,15.70
2018-06-27T00:38:30.450Z,15.68
2018-06-27T00:40:59.167Z,15.58
2018-06-27T00:43:27.809Z,15.52
2018-06-27T00:45:56.516Z,15.45
2018-06-27T00:48:25.163Z,15.42
2018-06-27T00:50:53.877Z,15.37
2018-06-27T00:53:26.614Z,15.32
2018-06-27T00:55:55.292Z,15.30
2018-06-27T00:58:23.857Z,15.23
2018-06-27T01:00:52.534Z,15.14
2018-06-27T01:03:21.164Z,15.12
2018-06-27T01:05:49.823Z,15.07
2018-06-27T01:08:18.496Z,15.09
2018-06-27T01:10:47.109Z,15.04
2018-06-27T01:13:15.803Z,14.96
2018-06-27T01:15:44.460Z,14.95
2018-06-27T01:18:13.051Z,14.91
2018-06-27T01:20:41.824Z,14.92
2018-06-27T01:23:10.449Z,14.89
2018-06-27T01:25:39.074Z,14.80
2018-06-27T01:28:07.737Z,14.79
2018-06-27T01:30:36.288Z,14.73
2018-06-27T01:33:04.926Z,14.72
2018-06-27T01:35:33.693Z,14.70
2018-06-27T01:38:02.398Z,14.73
2018-06-27T01:40:31.067Z,14.68
2018-06-27T01:42:59.634Z,14.67
2018-06-27T01:45:28.230Z,14.65
2018-06-27T01:47:56.879Z,14.60
2018-06-27T01:50:25.568Z,14.64
2018-06-27T01:52:54.252Z,14.63
2018-06-27T01:55:22.861Z,14.56
2018-06-27T01:57:51.495Z,14.57
2018-06-27T02:00:20.178Z,14.55
2018-06-27T02:02:48.944Z,14.58
2018-06-27T02:05:17.642Z,14.55
2018-06-27T02:07:46.313Z,14.50
2018-06-27T02:10:14.937Z,14.48
2018-06-27T02:12:43.799Z,14.47
2018-06-27T02:15:12.556Z,14.44
2018-06-27T02:17:41.224Z,14.42
2018-06-27T02:20:09.856Z,14.40
2018-06-27T02:22:38.545Z,14.37
2018-06-27T02:25:07.138Z,14.34
2018-06-27T02:27:35.817Z,14.30
2018-06-27T02:30:04.727Z,14.30
2018-06-27T02:32:33.323Z,14.29
2018-06-27T02:35:01.965Z,14.23
2018-06-27T02:37:30.726Z,14.22
2018-06-27T02:39:59.412Z,14.18
2018-06-27T02:42:28.060Z,14.13
2018-06-27T02:44:56.709Z,14.12
2018-06-27T02:47:25.421Z,14.13
2018-06-27T02:49:54.174Z,14.14
2018-06-27T02:52:22.771Z,14.12
2018-06-27T02:54:51.367Z,14.12
2018-06-27T02:57:19.995Z,14.06
2018-06-27T02:59:48.757Z,13.97
2018-06-27T03:02:17.394Z,13.98
2018-06-27T03:04:46.026Z,14.00
2018-06-27T03:07:14.687Z,13.93
2018-06-27T03:09:43.391Z,13.86
2018-06-27T03:12:12.064Z,13.77
2018-06-27T03:14:40.760Z,13.73
2018-06-27T03:17:09.425Z,13.73
2018-06-27T03:19:38.076Z,13.79
2018-06-27T03:22:06.925Z,13.81
2018-06-27T03:24:35.575Z,13.87
2018-06-27T03:27:04.299Z,13.88
2018-06-27T03:29:32.949Z,13.97
2018-06-27T03:32:06.984Z,13.93
2018-06-27T03:34:35.616Z,13.95
2018-06-27T03:37:04.318Z,13.96
2018-06-27T03:39:32.907Z,13.95
2018-06-27T03:42:01.687Z,13.99
2018-06-27T03:44:30.241Z,14.00
2018-06-27T03:46:58.802Z,13.99
2018-06-27T03:49:27.455Z,14.04
2018-06-27T03:51:56.080Z,13.97
2018-06-27T03:54:24.784Z,14.07
2018-06-27T03:56:53.472Z,14.12
2018-06-27T03:59:22.212Z,14.18
2018-06-27T04:01:50.903Z,14.22
2018-06-27T04:04:19.653Z,14.17
2018-06-27T04:06:48.330Z,14.21
2018-06-27T04:09:16.936Z,14.30
2018-06-27T04:11:45.583Z,14.29
2018-06-27T04:14:14.288Z,14.21
2018-06-27T04:16:42.881Z,14.17
2018-06-27T04:19:11.511Z,14.20
2018-06-27T04:21:40.142Z,13.24
2018-06-27T04:24:08.766Z,14.20
2018-06-27T04:26:37.457Z,14.22
2018-06-27T04:29:06.131Z,14.29
2018-06-27T04:31:34.790Z,14.36
2018-06-27T04:34:03.462Z,14.32
2018-06-27T04:36:32.106Z,14.32
2018-06-27T04:39:00.686Z,14.33
2018-06-27T04:41:29.324Z,14.39
2018-06-27T04:43:57.984Z,14.54
2018-06-27T04:46:26.597Z,14.58
2018-06-27T04:48:55.379Z,14.55
2018-06-27T04:51:23.949Z,14.52
2018-06-27T04:53:52.614Z,14.59
2018-06-27T04:56:21.180Z,14.74
2018-06-27T04:58:49.838Z,14.72
2018-06-27T05:01:18.534Z,14.79
2018-06-27T05:03:47.238Z,14.87
2018-06-27T05:06:16.016Z,14.99
2018-06-27T05:08:44.590Z,14.99
2018-06-27T05:11:13.293Z,15.02
2018-06-27T05:13:41.867Z,14.86
2018-06-27T05:16:10.592Z,14.83
2018-06-27T05:18:39.349Z,14.90
2018-06-27T05:21:07.948Z,14.90
2018-06-27T05:23:36.593Z,14.95
2018-06-27T05:26:05.319Z,15.11
2018-06-27T05:28:33.976Z,15.36
2018-06-27T05:31:02.579Z,15.52
2018-06-27T05:33:31.260Z,15.48
2018-06-27T05:35:59.904Z,15.51
2018-06-27T05:38:28.704Z,15.40
2018-06-27T05:40:57.422Z,15.43
2018-06-27T05:43:26.311Z,15.41
2018-06-27T05:45:55.011Z,15.48
2018-06-27T05:48:23.630Z,15.57
2018-06-27T05:50:52.364Z,15.51
2018-06-27T05:53:21.051Z,15.64
2018-06-27T05:55:49.674Z,15.67
2018-06-27T05:58:18.514Z,15.94
2018-06-27T06:00:47.038Z,15.83
2018-06-27T06:03:15.729Z,15.64
2018-06-27T06:05:44.353Z,15.66
2018-06-27T06:08:12.999Z,15.63
2018-06-27T06:10:41.711Z,15.78
2018-06-27T06:13:10.384Z,15.76
2018-06-27T06:15:39.150Z,15.86
2018-06-27T06:18:07.831Z,16.00
2018-06-27T06:20:36.471Z,16.04
2018-06-27T06:23:05.085Z,16.00
2018-06-27T06:25:33.843Z,16.09
2018-06-27T06:28:02.569Z,16.12
2018-06-27T06:30:31.155Z,16.19
2018-06-27T06:32:59.821Z,16.36
2018-06-27T06:35:28.690Z,16.48
2018-06-27T06:37:57.430Z,16.50
2018-06-27T06:40:26.059Z,16.79
2018-06-27T06:42:54.665Z,16.60
2018-06-27T06:45:23.576Z,16.69
2018-06-27T06:47:52.275Z,17.00
2018-06-27T06:50:21.003Z,17.16
2018-06-27T06:52:49.704Z,16.24
2018-06-27T06:55:18.371Z,17.15
2018-06-27T06:57:47.107Z,17.31
2018-06-27T07:00:15.735Z,17.40
2018-06-27T07:02:44.435Z,17.44
2018-06-27T07:05:13.201Z,17.48
2018-06-27T07:07:41.956Z,17.61
2018-06-27T07:10:10.539Z,17.71
2018-06-27T07:12:39.199Z,17.25
2018-06-27T07:15:07.935Z,17.23
2018-06-27T07:17:36.663Z,17.46
2018-06-27T07:20:05.665Z,17.37
2018-06-27T07:22:34.281Z,17.23
2018-06-27T07:25:02.889Z,17.23
2018-06-27T07:27:31.609Z,17.14
2018-06-27T07:30:00.337Z,17.34
2018-06-27T07:32:29.214Z,17.67
2018-06-27T07:34:58.067Z,17.72
2018-06-27T07:37:26.856Z,17.93
2018-06-27T07:39:55.703Z,17.94
2018-06-27T07:42:24.392Z,17.87
2018-06-27T07:44:53.159Z,17.88
2018-06-27T07:47:21.880Z,17.95
2018-06-27T07:49:50.714Z,18.17
2018-06-27T07:52:19.281Z,18.40
2018-06-27T07:54:48.002Z,18.38
2018-06-27T07:57:16.659Z,18.55
2018-06-27T07:59:45.403Z,18.71
2018-06-27T08:02:14.123Z,18.73
2018-06-27T08:04:42.814Z,18.97
2018-06-27T08:07:11.446Z,18.72
2018-06-27T08:09:40.130Z,18.64
2018-06-27T08:12:08.840Z,18.33
2018-06-27T08:14:37.599Z,18.61
2018-06-27T08:17:06.220Z,18.78
2018-06-27T08:19:34.847Z,18.92
2018-06-27T08:22:03.697Z,19.03
2018-06-27T08:24:32.316Z,18.91
2018-06-27T08:27:00.967Z,18.88
2018-06-27T08:29:29.864Z,18.99
2018-06-27T08:31:58.647Z,19.26
2018-06-27T08:34:27.270Z,19.40
2018-06-27T08:36:55.965Z,19.43
2018-06-27T08:39:24.727Z,19.50
2018-06-27T08:41:53.438Z,19.72
2018-06-27T08:44:22.076Z,19.79
2018-06-27T08:46:50.945Z,19.71
2018-06-27T08:49:19.574Z,19.56
2018-06-27T08:51:48.296Z,19.21
2018-06-27T08:54:16.970Z,19.48
2018-06-27T08:56:45.602Z,19.54
2018-06-27T08:59:14.272Z,19.53
2018-06-27T09:01:43.001Z,19.57
2018-06-27T09:04:11.656Z,19.53
2018-06-27T09:06:40.360Z,19.79
2018-06-27T09:09:11.307Z,19.91
2018-06-27T09:11:39.965Z,19.89
2018-06-27T09:14:08.775Z,19.55
2018-06-27T09:16:37.313Z,19.64
2018-06-27T09:19:05.963Z,20.06
2018-06-27T09:21:34.568Z,20.09
2018-06-27T09:24:03.268Z,20.44
2018-06-27T09:26:31.878Z,20.28
2018-06-27T09:29:00.581Z,20.28
2018-06-27T09:31:29.399Z,20.50
2018-06-27T09:33:58.129Z,20.80
2018-06-27T09:36:26.792Z,21.14
2018-06-27T09:38:55.900Z,20.71
2018-06-27T09:41:24.508Z,20.74
2018-06-27T09:43:53.134Z,20.77
2018-06-27T09:46:21.770Z,20.96
2018-06-27T09:48:50.392Z,21.02
2018-06-27T09:51:19.088Z,21.09
2018-06-27T09:53:47.730Z,20.81
2018-06-27T09:56:16.464Z,20.56
2018-06-27T09:58:45.151Z,20.62
2018-06-27T10:01:13.965Z,20.70
2018-06-27T10:03:42.683Z,20.61
2018-06-27T10:06:11.379Z,20.69
2018-06-27T10:08:40.039Z,20.87
2018-06-27T10:11:08.667Z,21.20
2018-06-27T10:13:37.494Z,21.24
2018-06-27T10:16:06.367Z,21.30
2018-06-27T10:18:34.919Z,21.36
2018-06-27T10:21:03.604Z,21.45
2018-06-27T10:23:32.402Z,21.41
2018-06-27T10:26:00.966Z,21.60
2018-06-27T10:28:32.619Z,21.79
2018-06-27T10:31:01.241Z,22.08
2018-06-27T10:33:29.973Z,22.25
2018-06-27T10:35:58.608Z,22.10
2018-06-27T10:38:27.288Z,22.10
2018-06-27T10:40:56.132Z,21.75
2018-06-27T10:43:24.766Z,21.70
2018-06-27T10:45:53.444Z,22.15
2018-06-27T10:48:22.095Z,22.37
2018-06-27T10:50:50.777Z,22.57
2018-06-27T10:53:19.418Z,22.88
2018-06-27T10:55:48.098Z,22.99
2018-06-27T10:58:16.670Z,22.25
2018-06-27T11:00:45.256Z,22.33
2018-06-27T11:03:13.874Z,22.59
2018-06-27T11:05:42.598Z,22.44
2018-06-27T11:08:11.265Z,22.78
2018-06-27T11:10:39.917Z,23.12
2018-06-27T11:13:08.519Z,23.47
2018-06-27T11:15:37.184Z,23.56
2018-06-27T11:18:05.802Z,23.92
2018-06-27T11:20:34.515Z,23.94
2018-06-27T11:23:03.184Z,24.15
2018-06-27T11:25:32.173Z,24.38
2018-06-27T11:28:00.763Z,24.63
2018-06-27T11:30:29.373Z,24.20
2018-06-27T11:32:58.136Z,24.72
2018-06-27T11:35:26.748Z,25.11
2018-06-27T11:37:55.406Z,25.08
2018-06-27T11:40:24.000Z,25.37
2018-06-27T11:42:52.738Z,25.38
2018-06-27T11:45:22.222Z,25.80
2018-06-27T11:47:51.094Z,26.34
2018-06-27T11:50:19.787Z,26.37
2018-06-27T11:52:48.408Z,25.79
2018-06-27T11:55:17.080Z,26.74
2018-06-27T11:57:45.825Z,27.16
2018-06-27T12:00:14.824Z,27.40
2018-06-27T12:02:43.523Z,27.43
2018-06-27T12:05:12.261Z,27.63
2018-06-27T12:07:40.894Z,27.09
2018-06-27T12:10:09.743Z,26.77
2018-06-27T12:12:38.326Z,26.67
2018-06-27T12:15:07.082Z,26.22
2018-06-27T12:17:35.707Z,25.97
2018-06-27T12:20:04.452Z,26.23
2018-06-27T12:22:33.032Z,26.17
2018-06-27T12:25:01.637Z,26.58
2018-06-27T12:27:30.442Z,26.59
2018-06-27T12:29:59.239Z,27.04
2018-06-27T12:32:27.882Z,27.41
2018-06-27T12:34:56.541Z,28.17
2018-06-27T12:37:25.099Z,29.04
2018-06-27T12:39:53.681Z,29.85
2018-06-27T12:42:22.484Z,29.79
2018-06-27T12:44:51.246Z,29.69
2018-06-27T12:47:19.851Z,28.97
2018-06-27T12:49:48.814Z,31.44
2018-06-27T12:52:17.459Z,32.66
2018-06-27T12:54:46.161Z,34.43
2018-06-27T12:57:14.820Z,35.69
2018-06-27T12:59:43.504Z,35.39
2018-06-27T13:02:12.169Z,35.43
2018-06-27T13:04:40.861Z,36.83
2018-06-27T13:07:09.591Z,36.94
2018-06-27T13:09:38.275Z,36.55
2018-06-27T13:12:07.258Z,35.24
2018-06-27T13:14:35.920Z,36.20
2018-06-27T13:17:04.596Z,36.48
2018-06-27T13:19:33.231Z,35.54
2018-06-27T13:22:01.840Z,34.52
2018-06-27T13:24:30.574Z,34.70
2018-06-27T13:26:59.256Z,34.64
2018-06-27T13:29:28.234Z,35.49
2018-06-27T13:31:56.817Z,35.98
2018-06-27T13:34:25.568Z,37.30
2018-06-27T13:36:54.428Z,37.27
2018-06-27T13:39:23.000Z,35.81
2018-06-27T13:41:51.659Z,36.07
2018-06-27T13:44:20.281Z,35.67
2018-06-27T13:46:48.972Z,34.77
2018-06-27T13:49:17.723Z,34.16
2018-06-27T13:51:46.420Z,34.78
2018-06-27T13:54:15.027Z,35.00
2018-06-27T13:56:43.728Z,35.19
2018-06-27T13:59:12.599Z,34.97
2018-06-27T14:01:41.349Z,32.67
2018-06-27T14:04:10.161Z,31.73
2018-06-27T14:06:38.790Z,30.76
2018-06-27T14:09:08.921Z,30.52
2018-06-27T14:11:37.642Z,29.98
2018-06-27T14:14:06.468Z,28.51
2018-06-27T14:16:35.359Z,27.73
2018-06-27T14:19:04.040Z,27.16
2018-06-27T14:21:32.820Z,27.08
2018-06-27T14:24:01.503Z,26.66
2018-06-27T14:26:30.091Z,26.18
2018-06-27T14:28:58.847Z,26.39
2018-06-27T14:31:27.580Z,26.70
2018-06-27T14:33:56.170Z,26.75
2018-06-27T14:36:24.955Z,27.01
2018-06-27T14:38:53.593Z,27.36
2018-06-27T14:41:22.229Z,26.88
2018-06-27T14:43:50.923Z,26.60
2018-06-27T14:46:19.594Z,26.70
2018-06-27T14:48:48.273Z,26.75
2018-06-27T14:51:17.030Z,26.96
2018-06-27T14:53:45.710Z,27.36
2018-06-27T14:56:14.284Z,27.75
2018-06-27T14:58:42.873Z,28.23
2018-06-27T15:01:11.689Z,28.38
2018-06-27T15:03:40.278Z,29.02
2018-06-27T15:06:09.031Z,28.95
2018-06-27T15:08:37.760Z,29.19
2018-06-27T15:11:06.463Z,30.17
2018-06-27T15:13:35.244Z,30.61
2018-06-27T15:16:03.999Z,29.60
2018-06-27T15:18:32.715Z,28.48
2018-06-27T15:21:01.351Z,27.63
2018-06-27T15:23:30.054Z,27.27
2018-06-27T15:25:58.584Z,27.04
2018-06-27T15:28:27.245Z,26.19
2018-06-27T15:30:55.884Z,25.19
2018-06-27T15:33:24.575Z,24.86
2018-06-27T15:35:53.165Z,24.55
2018-06-27T15:38:21.881Z,24.33
2018-06-27T15:40:50.645Z,24.40
2018-06-27T15:43:19.466Z,24.14
2018-06-27T15:48:22.843Z,23.69
2018-06-27T15:50:51.580Z,23.93
2018-06-27T15:53:20.499Z,24.04
2018-06-27T15:55:49.251Z,24.08
2018-06-27T15:58:17.968Z,24.01
2018-06-27T16:00:46.860Z,23.82
2018-06-27T16:03:15.558Z,23.66
2018-06-27T16:05:44.264Z,23.63
2018-06-27T16:08:13.110Z,23.67
2018-06-27T16:10:41.744Z,23.70
2018-06-27T16:13:10.526Z,23.57
2018-06-27T16:15:39.165Z,23.49
2018-06-27T16:18:07.840Z,23.34
2018-06-27T16:20:36.667Z,23.17
2018-06-27T16:23:05.397Z,23.21
2018-06-27T16:25:34.142Z,23.22
2018-06-27T16:28:02.804Z,23.18
2018-06-27T16:30:31.484Z,23.00
2018-06-27T16:33:00.183Z,23.00
2018-06-27T16:35:28.894Z,23.06
2018-06-27T16:37:57.459Z,23.11
2018-06-27T16:40:26.216Z,23.19
2018-06-27T16:42:54.965Z,23.11
2018-06-27T16:45:23.581Z,22.98
2018-06-27T16:47:52.301Z,22.94
2018-06-27T16:50:20.896Z,22.85
2018-06-27T16:52:49.579Z,22.85
2018-06-27T16:55:18.242Z,22.78
2018-06-27T16:57:46.921Z,22.76
2018-06-27T17:00:15.887Z,22.76
2018-06-27T17:02:44.547Z,22.67
2018-06-27T17:05:13.181Z,22.67
2018-06-27T17:07:41.830Z,22.66
2018-06-27T17:10:11.017Z,22.69
2018-06-27T17:12:39.705Z,22.69
2018-06-27T17:15:08.439Z,22.66
2018-06-27T17:18:40.004Z,22.66
2018-06-27T17:21:09.039Z,22.58
2018-06-27T17:23:37.881Z,22.60
2018-06-27T17:26:06.504Z,22.64
2018-06-27T17:28:35.289Z,22.63
2018-06-27T17:31:04.023Z,22.64
2018-06-27T17:33:32.668Z,22.67
2018-06-27T17:36:01.477Z,22.71
2018-06-27T17:38:31.429Z,22.58
2018-06-27T17:41:00.332Z,22.57
2018-06-27T17:43:29.066Z,22.46
2018-06-27T17:45:57.705Z,22.37
2018-06-27T17:48:26.420Z,22.38
2018-06-27T17:50:55.644Z,22.37
2018-06-27T17:53:24.386Z,22.29
2018-06-27T17:55:53.436Z,22.28
2018-06-27T17:58:22.430Z,22.28
2018-06-27T18:00:51.215Z,22.29
2018-06-27T18:03:20.062Z,22.20
2018-06-27T18:05:48.738Z,22.15
2018-06-27T18:08:17.532Z,22.10
2018-06-27T18:10:46.390Z,22.08
2018-06-27T18:13:15.695Z,22.05
2018-06-27T18:15:44.854Z,21.99
2018-06-27T18:18:13.896Z,21.97
2018-06-27T18:20:42.777Z,21.93
2018-06-27T18:23:11.700Z,21.92
2018-06-27T18:25:40.434Z,21.84
2018-06-27T18:28:09.060Z,21.79
2018-06-27T18:30:38.137Z,21.80
2018-06-27T18:33:07.642Z,21.97
2018-06-27T18:35:36.597Z,21.91
2018-06-27T18:38:05.595Z,21.78
2018-06-27T18:40:34.354Z,21.69
2018-06-27T18:43:03.125Z,21.62
2018-06-27T18:45:31.774Z,21.60
2018-06-27T18:48:00.439Z,20.65
2018-06-27T18:50:29.791Z,21.49
2018-06-27T18:52:59.094Z,21.36
2018-06-27T18:55:28.661Z,21.28
2018-06-27T18:57:57.572Z,21.19
2018-06-27T19:00:26.395Z,21.10
2018-06-27T19:02:55.201Z,21.04
2018-06-27T19:05:24.293Z,21.01
2018-06-27T19:07:52.887Z,20.92
2018-06-27T19:10:21.508Z,20.84
2018-06-27T19:12:50.222Z,20.81
2018-06-27T19:15:19.412Z,20.79
2018-06-27T19:17:48.806Z,20.77
2018-06-27T19:20:17.449Z,20.73
2018-06-27T19:22:46.178Z,20.63
2018-06-27T19:25:15.023Z,20.50
2018-06-27T19:27:43.855Z,20.43
2018-06-27T19:30:13.903Z,20.41
2018-06-27T19:32:43.711Z,20.36
2018-06-27T19:35:12.911Z,20.29
2018-06-27T19:37:41.856Z,20.23
2018-06-27T19:40:10.758Z,20.17
2018-06-27T19:42:39.481Z,20.10
2018-06-27T19:45:08.226Z,20.08
2018-06-27T19:47:36.848Z,20.05
2018-06-27T19:50:05.800Z,19.95
2018-06-27T19:52:34.970Z,19.89
2018-06-27T19:55:04.117Z,19.79
2018-06-27T19:57:32.940Z,19.76
2018-06-27T20:00:01.774Z,19.67
2018-06-27T20:02:30.569Z,19.57
2018-06-27T20:04:59.199Z,19.47
2018-06-27T20:07:27.970Z,19.33
2018-06-27T20:09:56.956Z,19.27
2018-06-27T20:12:25.824Z,18.51
2018-06-27T20:14:54.645Z,19.16
2018-06-27T20:17:23.864Z,19.06
2018-06-27T20:19:52.679Z,18.93
2018-06-27T20:22:21.777Z,18.82
2018-06-27T20:24:50.567Z,18.71
2018-06-27T20:27:19.264Z,18.66
2018-06-27T20:29:48.015Z,18.62
2018-06-27T20:32:16.852Z,18.53
2018-06-27T20:34:46.531Z,18.48
2018-06-27T20:37:15.998Z,18.46
2018-06-27T20:39:45.304Z,18.37
2018-06-27T20:42:14.516Z,18.29
2018-06-27T20:44:43.371Z,18.23
2018-06-27T20:47:12.014Z,18.20
2018-06-27T20:49:40.993Z,18.14
2018-06-27T20:52:09.852Z,18.16
2018-06-27T20:54:38.634Z,18.11
2018-06-27T20:57:07.734Z,18.02
2018-06-27T20:59:36.475Z,17.98
2018-06-27T21:02:05.222Z,17.94
2018-06-27T21:04:33.843Z,17.89
2018-06-27T21:07:03.045Z,17.78
2018-06-27T21:09:31.656Z,17.76
2018-06-27T21:12:00.672Z,17.70
2018-06-27T21:14:29.277Z,17.70
2018-06-27T21:16:58.101Z,17.67
2018-06-27T21:19:27.037Z,17.60
2018-06-27T21:21:57.054Z,17.51
2018-06-27T21:24:25.821Z,17.43
2018-06-27T21:26:54.527Z,17.36
2018-06-27T21:29:24.064Z,17.29
2018-06-27T21:31:53.064Z,17.07
2018-06-27T21:34:21.935Z,17.02
2018-06-27T21:36:51.006Z,17.00
2018-06-27T21:39:19.750Z,17.01
2018-06-27T21:41:49.148Z,15.82
2018-06-27T21:44:17.970Z,16.80
2018-06-27T21:46:46.647Z,16.76
2018-06-27T21:49:15.309Z,16.70
2018-06-27T21:51:44.017Z,16.68
2018-06-27T21:54:12.734Z,16.67
2018-06-27T21:56:41.396Z,16.62
2018-06-27T21:59:10.057Z,16.64
2018-06-27T22:01:38.624Z,16.57
2018-06-27T22:04:07.325Z,16.57
2018-06-27T22:06:35.989Z,16.56
2018-06-27T22:09:06.401Z,16.58
2018-06-27T22:11:35.183Z,16.55
2018-06-27T22:14:04.035Z,16.54
2018-06-27T22:16:32.738Z,16.49
2018-06-27T22:19:01.298Z,16.46
2018-06-27T22:21:29.927Z,16.44
2018-06-27T22:23:58.702Z,16.41
2018-06-27T22:26:27.364Z,16.43
2018-06-27T22:28:56.112Z,16.44
2018-06-27T22:31:24.755Z,16.42
2018-06-27T22:33:53.416Z,16.35
2018-06-27T22:36:22.081Z,16.34
2018-06-27T22:38:50.744Z,16.28
2018-06-27T22:41:19.437Z,16.27
2018-06-27T22:43:48.015Z,16.25
2018-06-27T22:46:16.805Z,16.18
2018-06-27T22:48:45.457Z,16.20
2018-06-27T22:51:14.154Z,16.15
2018-06-27T22:53:42.777Z,16.12
2018-06-27T22:56:11.353Z,16.08
2018-06-27T22:58:40.025Z,16.08
2018-06-27T23:01:08.732Z,16.08
2018-06-27T23:03:37.420Z,16.06
2018-06-27T23:06:06.079Z,16.05
2018-06-27T23:08:34.768Z,16.06
2018-06-27T23:11:03.401Z,16.04
2018-06-27T23:13:32.020Z,16.04
2018-06-27T23:16:00.708Z,16.01
2018-06-27T23:18:29.462Z,15.95
2018-06-27T23:20:58.097Z,15.94
2018-06-27T23:23:26.690Z,15.93
2018-06-27T23:25:55.354Z,15.96
2018-06-27T23:28:23.919Z,16.01
2018-06-27T23:30:52.568Z,16.02
2018-06-27T23:33:21.131Z,15.94
2018-06-27T23:35:49.761Z,15.96
2018-06-27T23:38:18.822Z,15.93
2018-06-27T23:40:47.406Z,15.91
2018-06-27T23:43:16.136Z,15.90
2018-06-27T23:45:44.797Z,15.86
2018-06-27T23:48:13.447Z,15.85
2018-06-27T23:50:42.020Z,15.85
2018-06-27T23:53:10.716Z,15.90
2018-06-27T23:55:39.494Z,15.92
2018-06-27T23:58:08.216Z,15.87
